Time;durP1;ratioP1;P1;durP2;ratioP2;P2;SDS_P1;SDS_P2;PMS_P1;PMS_P2;Temp;Humidity;BMP_temperature;BMP_pressure;BME280_temperature;BME280_humidity;BME280_pressure;Samples;Min_cycle;Max_cycle;Signal;HPM_P1;HPM_P2
2023/04/19 00:01:56;;;;;;;10.23;5.50;;;;;;;10.80;96.92;100552.59;12190603;19;20007;-82
2023/04/19 00:05:58;;;;;;;8.57;4.60;;;;;;;10.75;98.00;100548.88;12175927;19;20478;-83
2023/04/19 00:10:00;;;;;;;10.20;5.20;;;;;;;10.70;97.45;100544.88;12200848;19;20042;-84
2023/04/19 00:14:02;;;;;;;8.17;4.43;;;;;;;10.70;98.39;100539.34;12198465;19;20110;-83
2023/04/19 00:18:04;;;;;;;8.77;4.65;;;;;;;10.72;97.92;100545.50;12175401;19;20030;-84
2023/04/19 00:22:06;;;;;;;8.32;4.82;;;;;;;10.71;97.60;100551.25;12199105;19;20018;-83
2023/04/19 00:26:10;;;;;;;10.97;5.07;;;;;;;10.67;97.36;100542.59;12196395;19;20611;-85
2023/04/19 00:30:13;;;;;;;9.48;5.38;;;;;;;10.64;97.92;100533.94;12175610;19;20531;-83
2023/04/19 00:34:14;;;;;;;8.00;4.80;;;;;;;10.66;97.92;100543.66;12197284;19;20007;-83
2023/04/19 00:38:17;;;;;;;6.10;4.22;;;;;;;10.65;97.48;100532.91;12201406;19;20003;-83
2023/04/19 00:42:18;;;;;;;7.25;4.97;;;;;;;10.62;98.49;100531.44;12175995;19;21398;-84
2023/04/19 00:46:21;;;;;;;8.52;3.75;;;;;;;10.60;99.43;100533.56;12198334;19;20016;-82
2023/04/19 00:50:23;;;;;;;8.75;4.72;;;;;;;10.58;99.83;100532.13;12198158;19;20578;-84
2023/04/19 00:54:25;;;;;;;7.90;4.00;;;;;;;10.58;99.46;100535.72;12177566;19;21121;-84
2023/04/19 00:58:30;;;;;;;7.07;3.53;;;;;;;10.58;99.46;100532.97;12200797;19;20010;-85
2023/04/19 01:02:32;;;;;;;6.55;3.50;;;;;;;10.59;98.96;100531.91;12174039;19;20003;-83
2023/04/19 01:06:35;;;;;;;8.88;3.97;;;;;;;10.58;99.09;100518.34;12200765;19;20006;-83
2023/04/19 01:10:36;;;;;;;;;;;;;;;10.53;100.00;100520.94;12201117;19;20066;-84
2023/04/19 01:14:38;;;;;;;6.43;3.35;;;;;;;10.52;100.00;100519.28;12182153;19;19911;-83
2023/04/19 01:18:40;;;;;;;6.77;3.50;;;;;;;10.44;100.00;100512.16;12211416;19;20026;-82
2023/04/19 01:22:42;;;;;;;6.22;3.85;;;;;;;10.40;100.00;100511.78;12210042;19;20030;-82
2023/04/19 01:26:44;;;;;;;7.05;3.38;;;;;;;10.40;100.00;100516.47;12195628;19;20074;-82
2023/04/19 01:30:46;;;;;;;5.07;3.42;;;;;;;10.40;100.00;100508.19;12217053;19;20003;-83
2023/04/19 01:34:48;;;;;;;5.93;3.70;;;;;;;10.38;100.00;100505.69;12238344;19;20048;-84
2023/04/19 01:38:49;;;;;;;5.70;3.22;;;;;;;10.32;100.00;100498.34;12240175;19;20006;-84
2023/04/19 01:42:51;;;;;;;8.45;3.65;;;;;;;10.27;100.00;100487.19;12259339;19;20023;-84
2023/04/19 01:46:54;;;;;;;7.57;3.53;;;;;;;10.23;100.00;100491.41;12258663;19;19999;-84
2023/04/19 01:50:55;;;;;;;6.88;3.80;;;;;;;10.21;100.00;100494.41;12234903;19;20017;-84
2023/04/19 01:54:57;;;;;;;6.40;3.83;;;;;;;10.18;100.00;100488.53;12252619;19;20006;-84
2023/04/19 01:58:59;;;;;;;5.00;3.33;;;;;;;10.11;100.00;100485.84;12241514;19;19995;-84
2023/04/19 02:03:01;;;;;;;7.90;3.80;;;;;;;10.03;100.00;100467.72;12208429;19;19999;-84
2023/04/19 02:07:03;;;;;;;6.50;3.37;;;;;;;9.94;100.00;100463.59;12207058;19;20006;-84
2023/04/19 02:11:09;;;;;;;6.38;3.45;;;;;;;9.89;100.00;100466.19;12202867;19;20011;-82
2023/04/19 02:15:11;;;;;;;6.80;3.58;;;;;;;9.89;100.00;100466.19;12184709;19;20006;-82
2023/04/19 02:19:12;;;;;;;6.40;3.65;;;;;;;9.92;100.00;100465.72;12223793;19;20007;-82
2023/04/19 02:23:14;;;;;;;7.13;3.30;;;;;;;9.93;100.00;100458.31;12218249;19;20068;-82
2023/04/19 02:27:16;;;;;;;7.10;3.67;;;;;;;9.94;100.00;100460.00;12209148;19;20011;-83
2023/04/19 02:31:18;;;;;;;7.85;3.83;;;;;;;9.90;100.00;100454.09;12227903;19;20002;-83
2023/04/19 02:35:20;;;;;;;8.93;3.40;;;;;;;9.89;100.00;100460.69;12225305;19;20606;-81
2023/04/19 02:39:22;;;;;;;6.50;3.83;;;;;;;9.86;100.00;100455.66;12207470;19;20070;-83
2023/04/19 02:43:28;;;;;;;8.23;3.58;;;;;;;9.84;100.00;100449.53;12224358;19;20519;-83
2023/04/19 02:47:30;;;;;;;8.90;4.38;;;;;;;9.81;100.00;100448.09;12208227;19;20003;-84
2023/04/19 02:51:31;;;;;;;6.75;3.85;;;;;;;9.78;100.00;100444.94;12229900;19;20832;-85
2023/04/19 02:55:33;;;;;;;7.32;3.88;;;;;;;9.73;100.00;100448.38;12247079;19;20014;-83
2023/04/19 02:59:41;;;;;;;7.85;4.18;;;;;;;9.66;100.00;100433.00;12199208;19;20011;-83
2023/04/19 03:03:43;;;;;;;6.93;3.45;;;;;;;9.62;100.00;100434.53;12219597;19;20089;-83
2023/04/19 03:07:45;;;;;;;5.93;3.67;;;;;;;9.57;100.00;100430.53;12239373;19;20010;-85
2023/04/19 03:11:47;;;;;;;6.25;3.50;;;;;;;9.52;100.00;100424.06;12252026;19;20001;-85
2023/04/19 03:15:51;;;;;;;8.52;3.78;;;;;;;9.48;100.00;100425.59;12245717;19;20014;-84
2023/04/19 03:19:56;;;;;;;7.68;4.28;;;;;;;9.46;100.00;100417.56;12229283;19;19998;-84
2023/04/19 03:23:58;;;;;;;5.53;3.47;;;;;;;9.41;100.00;100417.41;12205157;19;20006;-84
2023/04/19 03:28:01;;;;;;;7.03;4.07;;;;;;;9.37;100.00;100418.94;12229571;19;20022;-85
2023/04/19 03:32:32;;;;;;;7.07;3.97;;;;;;;9.33;100.00;100409.44;12212020;19;20451;-84
2023/04/19 03:36:34;;;;;;;7.43;4.07;;;;;;;9.28;100.00;100406.53;12237102;19;20007;-83
2023/04/19 03:40:37;;;;;;;7.47;4.10;;;;;;;9.22;100.00;100400.06;12230325;19;20823;-84
2023/04/19 03:44:40;;;;;;;9.82;4.85;;;;;;;9.16;100.00;100389.97;12199598;19;20113;-83
2023/04/19 03:48:46;;;;;;;7.05;4.68;;;;;;;9.13;100.00;100391.25;12229727;19;20557;-84
2023/04/19 03:52:48;;;;;;;7.80;4.53;;;;;;;9.11;100.00;100384.28;12220547;19;20677;-84
2023/04/19 03:56:50;;;;;;;10.15;5.43;;;;;;;9.08;100.00;100385.56;12201542;19;20025;-83
2023/04/19 04:00:52;;;;;;;9.48;5.70;;;;;;;9.10;100.00;100382.59;12225222;19;20015;-84
2023/04/19 04:04:54;;;;;;;10.45;5.10;;;;;;;9.07;100.00;100394.91;12221419;19;20010;-84
2023/04/19 04:08:57;;;;;;;11.48;5.20;;;;;;;9.00;100.00;100390.53;12199201;19;20046;-83
2023/04/19 04:12:59;;;;;;;10.98;4.85;;;;;;;8.90;100.00;100396.53;12220597;19;20015;-82
2023/04/19 04:17:11;;;;;;;9.45;5.40;;;;;;;8.77;100.00;100399.38;12255673;19;19998;-83
2023/04/19 04:21:23;;;;;;;12.05;5.28;;;;;;;8.66;100.00;100400.97;12255539;19;20002;-84
2023/04/19 04:25:27;;;;;;;9.70;5.45;;;;;;;8.53;100.00;100401.88;12246806;19;20719;-83
2023/04/19 04:29:31;;;;;;;8.30;4.93;;;;;;;8.41;100.00;100401.75;12186793;19;20015;-83
2023/04/19 04:33:38;;;;;;;12.48;6.13;;;;;;;8.31;100.00;100398.63;12202896;19;20027;-82
2023/04/19 04:37:47;;;;;;;12.18;5.93;;;;;;;8.22;100.00;100403.53;12203624;19;20003;-83
2023/04/19 04:41:50;;;;;;;10.45;6.00;;;;;;;8.20;100.00;100411.13;12181836;19;20003;-83
2023/04/19 04:45:54;;;;;;;12.23;5.82;;;;;;;8.21;100.00;100417.47;12204829;19;20085;-83
2023/04/19 04:49:58;;;;;;;11.07;5.93;;;;;;;8.22;100.00;100410.91;12205364;19;20064;-83
2023/04/19 04:54:00;;;;;;;11.65;6.40;;;;;;;8.19;100.00;100412.19;12184490;19;20015;-83
2023/04/19 04:58:04;;;;;;;9.17;4.73;;;;;;;8.14;100.00;100406.50;12204747;19;20014;-82
2023/04/19 05:02:25;;;;;;;11.82;6.13;;;;;;;8.12;100.00;100405.03;12194951;19;20532;-82
2023/04/19 05:06:27;;;;;;;12.50;6.60;;;;;;;8.10;100.00;100397.03;12205157;19;20018;-82
2023/04/19 05:10:29;;;;;;;16.00;6.82;;;;;;;8.07;100.00;100400.22;12204587;19;20083;-83
2023/04/19 05:14:32;;;;;;;14.90;7.35;;;;;;;8.08;100.00;100390.94;12180776;19;20364;-83
2023/04/19 05:18:35;;;;;;;14.82;6.80;;;;;;;8.16;100.00;100387.94;12205108;19;20019;-82
2023/04/19 05:22:39;;;;;;;13.77;7.15;;;;;;;8.20;100.00;100391.06;12201703;19;20075;-82
2023/04/19 05:26:43;;;;;;;15.90;7.90;;;;;;;8.28;100.00;100395.47;12183907;19;20483;-83
2023/04/19 05:30:46;;;;;;;12.52;7.15;;;;;;;8.44;100.00;100389.47;12206279;19;20492;-83
2023/04/19 05:34:50;;;;;;;18.27;8.55;;;;;;;8.63;100.00;100388.50;12208147;19;20003;-83
2023/04/19 05:38:52;;;;;;;13.85;6.97;;;;;;;8.91;100.00;100381.72;12186936;19;20026;-83
2023/04/19 05:42:57;;;;;;;11.13;6.78;;;;;;;9.20;100.00;100379.34;12215011;19;20354;-83
2023/04/19 05:47:00;;;;;;;13.23;7.22;;;;;;;9.46;100.00;100379.06;12213813;19;20014;-82
2023/04/19 05:51:23;;;;;;;15.68;7.78;;;;;;;9.69;100.00;100388.53;12197512;19;20023;-83
2023/04/19 05:55:46;;;;;;;13.23;7.32;;;;;;;9.92;100.00;100371.31;12211928;19;20019;-83
2023/04/19 05:59:50;;;;;;;14.45;7.35;;;;;;;10.11;100.00;100380.34;12187755;19;20015;-83
2023/04/19 06:03:56;;;;;;;13.57;8.23;;;;;;;10.29;100.00;100377.59;12210196;19;20024;-83
2023/04/19 06:08:00;;;;;;;15.30;7.30;;;;;;;10.46;100.00;100378.59;12231639;19;20007;-84
2023/04/19 06:12:08;;;;;;;16.02;8.05;;;;;;;10.56;100.00;100379.94;12199766;19;20357;-84
2023/04/19 06:16:10;;;;;;;14.98;8.45;;;;;;;10.64;100.00;100388.72;12262139;19;20050;-84
2023/04/19 06:20:14;;;;;;;16.30;9.27;;;;;;;10.73;100.00;100383.69;12267654;19;20012;-84
2023/04/19 06:24:16;;;;;;;15.80;8.25;;;;;;;10.83;100.00;100391.41;12237508;19;20015;-85
2023/04/19 06:28:19;;;;;;;16.25;8.45;;;;;;;11.02;100.00;100386.63;12235870;19;20009;-84
2023/04/19 06:32:21;;;;;;;15.57;7.68;;;;;;;11.15;100.00;100386.38;12215106;19;20014;-84
2023/04/19 06:36:23;;;;;;;18.33;8.63;;;;;;;11.22;100.00;100386.28;12189975;19;20007;-85
2023/04/19 06:40:28;;;;;;;17.52;8.95;;;;;;;11.40;100.00;100388.91;12208975;19;20099;-83
2023/04/19 06:44:31;;;;;;;11.95;7.63;;;;;;;11.77;100.00;100394.13;12182295;19;20003;-83
2023/04/19 06:48:33;;;;;;;15.80;9.07;;;;;;;12.13;100.00;100381.91;12206313;19;20014;-83
2023/04/19 06:52:39;;;;;;;12.85;8.25;;;;;;;12.33;100.00;100389.75;12188799;19;20086;-83
2023/04/19 06:56:45;;;;;;;12.60;7.85;;;;;;;12.35;100.00;100395.03;12192460;19;20068;-85
2023/04/19 07:00:48;;;;;;;17.98;9.30;;;;;;;12.39;100.00;100393.44;12219585;19;20038;-83
2023/04/19 07:04:50;;;;;;;13.68;8.10;;;;;;;12.33;100.00;100392.50;12211837;19;20027;-83
2023/04/19 07:08:53;;;;;;;14.20;8.25;;;;;;;12.35;100.00;100392.28;12198052;19;20003;-80
2023/04/19 07:12:55;;;;;;;14.23;8.02;;;;;;;12.49;100.00;100390.88;12204586;19;20856;-84
2023/04/19 07:16:59;;;;;;;12.50;7.68;;;;;;;12.51;100.00;100394.22;12223344;19;20011;-84
2023/04/19 07:21:01;;;;;;;13.63;7.60;;;;;;;12.48;100.00;100391.97;12203916;19;20006;-81
2023/04/19 07:25:06;;;;;;;15.35;8.18;;;;;;;12.47;97.94;100379.25;12213413;19;21215;-81
2023/04/19 07:29:10;;;;;;;13.82;8.07;;;;;;;12.70;97.79;100381.00;12204952;19;20022;-82
2023/04/19 07:33:15;;;;;;;12.00;6.50;;;;;;;12.94;96.78;100376.19;12180129;19;20015;-82
2023/04/19 07:37:16;;;;;;;11.77;7.10;;;;;;;13.03;93.32;100379.34;12209216;19;20006;-82
2023/04/19 07:41:18;;;;;;;11.68;6.60;;;;;;;13.17;92.40;100364.06;12206383;19;20002;-82
2023/04/19 07:45:20;;;;;;;10.43;6.68;;;;;;;13.18;91.87;100363.84;12190440;19;20031;-82
2023/04/19 07:49:22;;;;;;;13.00;6.50;;;;;;;13.04;88.61;100369.97;12213418;19;20368;-84
2023/04/19 07:53:27;;;;;;;8.98;6.00;;;;;;;13.12;88.95;100367.63;12214567;19;20009;-81
2023/04/19 07:57:29;;;;;;;9.35;5.75;;;;;;;13.10;86.54;100360.66;12258617;19;20003;-83
2023/04/19 08:01:31;;;;;;;10.75;5.90;;;;;;;12.89;85.44;100368.63;12226261;19;20384;-82
2023/04/19 08:05:34;;;;;;;9.70;5.32;;;;;;;12.81;85.62;100362.69;12191358;19;20007;-82
2023/04/19 08:09:37;;;;;;;10.75;6.47;;;;;;;12.72;85.45;100363.09;12222257;19;20456;-82
2023/04/19 08:13:41;;;;;;;11.73;5.43;;;;;;;12.61;83.96;100360.38;12223466;19;20103;-82
2023/04/19 08:18:05;;;;;;;8.80;5.32;;;;;;;12.73;84.73;100359.25;12198123;19;20014;-79
2023/04/19 08:22:08;;;;;;;10.13;5.22;;;;;;;12.97;83.20;100348.84;12225898;19;20039;-81
2023/04/19 08:26:13;;;;;;;14.10;5.00;;;;;;;13.18;81.63;100357.47;12218778;19;20725;-82
2023/04/19 08:30:16;;;;;;;10.30;5.38;;;;;;;13.41;81.21;100351.75;12198577;19;20071;-81
2023/04/19 08:34:20;;;;;;;10.18;5.05;;;;;;;13.72;79.62;100354.94;12219196;19;20010;-82
2023/04/19 08:38:23;;;;;;;9.27;5.00;;;;;;;14.03;74.66;100344.19;12203230;19;20024;-83
2023/04/19 08:42:25;;;;;;;8.90;4.78;;;;;;;13.94;74.56;100341.06;12181543;19;20027;-85
2023/04/19 08:46:37;;;;;;;8.25;4.78;;;;;;;13.90;73.85;100343.50;12207369;19;20007;-81
2023/04/19 08:50:41;;;;;;;6.68;3.85;;;;;;;14.18;75.73;100340.75;12181481;19;20011;-82
2023/04/19 08:55:07;;;;;;;8.25;4.22;;;;;;;14.34;74.68;100331.53;12203525;19;21570;-82
2023/04/19 08:59:09;;;;;;;8.02;4.80;;;;;;;14.61;72.40;100327.91;12204923;19;20014;-81
2023/04/19 09:03:20;;;;;;;8.20;4.95;;;;;;;14.90;71.54;100334.81;12182502;19;20026;-80
2023/04/19 09:07:25;;;;;;;7.78;4.05;;;;;;;15.03;68.73;100337.13;12201940;19;20018;-82
2023/04/19 09:11:39;;;;;;;10.20;4.22;;;;;;;15.03;65.76;100325.19;12190811;19;20019;-80
2023/04/19 09:15:43;;;;;;;6.88;4.35;;;;;;;15.12;67.87;100334.69;12203765;19;20059;-82
2023/04/19 09:19:48;;;;;;;6.13;4.07;;;;;;;15.00;65.79;100332.09;12212232;19;20007;-82
2023/04/19 09:23:50;;;;;;;7.10;3.60;;;;;;;14.98;67.42;100328.75;12184040;19;20467;-82
2023/04/19 09:27:54;;;;;;;6.28;3.80;;;;;;;15.08;65.83;100322.47;12203541;19;20015;-81
2023/04/19 09:31:57;;;;;;;10.98;4.93;;;;;;;15.19;63.76;100315.03;12204407;19;20361;-82
2023/04/19 09:36:00;;;;;;;7.57;4.25;;;;;;;14.93;63.94;100317.63;12182695;19;20471;-82
2023/04/19 09:40:22;;;;;;;8.95;4.50;;;;;;;15.20;64.90;100308.34;12201530;19;20079;-82
2023/04/19 09:44:27;;;;;;;6.57;4.03;;;;;;;15.59;64.10;100308.03;12235002;19;19998;-81
2023/04/19 09:48:32;;;;;;;8.45;4.18;;;;;;;15.69;61.07;100294.19;12220226;19;19998;-82
2023/04/19 09:52:34;;;;;;;6.80;3.93;;;;;;;15.93;60.31;100287.03;12213280;19;20020;-82
2023/04/19 09:56:36;;;;;;;6.47;3.60;;;;;;;16.08;57.14;100280.69;12198018;19;20464;-83
2023/04/19 10:00:40;;;;;;;5.85;3.50;;;;;;;16.05;56.90;100285.97;12221272;19;20464;-82
2023/04/19 10:04:55;;;;;;;5.53;3.70;;;;;;;16.18;57.02;100280.72;12265563;19;20011;-81
2023/04/19 10:09:21;;;;;;;4.72;2.80;;;;;;;16.74;56.24;100267.94;12238390;19;19998;-81
2023/04/19 10:13:23;;;;;;;8.10;3.30;;;;;;;17.04;51.47;100264.28;12207510;19;20514;-82
2023/04/19 10:17:27;;;;;;;6.05;3.05;;;;;;;16.87;52.42;100252.66;12184206;19;20024;-82
2023/04/19 10:21:30;;;;;;;5.80;2.87;;;;;;;16.48;50.72;100262.41;12218605;19;20007;-83
2023/04/19 10:25:36;;;;;;;4.30;2.70;;;;;;;16.63;52.07;100254.03;12214883;19;20003;-82
2023/04/19 10:30:00;;;;;;;7.00;3.10;;;;;;;17.23;50.94;100248.66;12183559;19;20021;-81
2023/04/19 10:34:01;;;;;;;5.93;2.78;;;;;;;17.13;45.89;100245.88;12204395;19;20078;-84
2023/04/19 10:38:12;;;;;;;4.70;3.20;;;;;;;17.06;46.20;100248.97;12200443;19;21090;-83
2023/04/19 10:42:20;;;;;;;10.20;3.55;;;;;;;16.82;47.37;100232.06;12178700;19;21824;-84
2023/04/19 10:46:23;;;;;;;6.88;3.22;;;;;;;17.24;47.73;100236.41;12201202;19;20014;-85
2023/04/19 10:50:25;;;;;;;4.88;2.88;;;;;;;17.50;44.77;100214.84;12197258;19;20002;-83
2023/04/19 10:54:35;;;;;;;9.63;3.03;;;;;;;17.10;43.20;100221.41;12169756;19;20007;-83
2023/04/19 10:58:59;;;;;;;6.95;3.42;;;;;;;17.01;44.03;100209.19;12194953;19;20345;-83
2023/04/19 11:03:50;;;;;;;8.00;3.15;;;;;;;17.31;42.40;100202.66;12175194;19;20011;-82
2023/04/19 11:07:52;;;;;;;5.13;2.85;;;;;;;17.30;42.19;100199.03;12198632;19;20007;-83
2023/04/19 11:12:08;;;;;;;6.43;3.70;;;;;;;16.94;42.21;100197.50;12176765;19;20018;-83
2023/04/19 11:16:11;;;;;;;7.07;3.55;;;;;;;16.81;43.64;100196.16;12202088;19;20046;-83
2023/04/19 11:20:13;;;;;;;12.15;4.07;;;;;;;17.09;43.40;100194.69;12204184;19;20018;-83
2023/04/19 11:24:17;;;;;;;6.50;3.33;;;;;;;17.04;42.70;100195.56;12177794;19;20031;-83
2023/04/19 11:28:20;;;;;;;5.43;3.97;;;;;;;17.08;42.46;100182.72;12201732;19;20050;-82
2023/04/19 11:32:22;;;;;;;7.15;3.75;;;;;;;17.24;42.12;100177.91;12195976;19;20070;-83
2023/04/19 11:36:25;;;;;;;6.72;3.25;;;;;;;17.14;42.45;100169.59;12186983;19;20039;-85
2023/04/19 11:40:27;;;;;;;7.90;3.92;;;;;;;17.07;42.02;100158.78;12204254;19;20390;-82
2023/04/19 11:44:33;;;;;;;5.63;3.40;;;;;;;17.42;40.37;100147.75;12190077;19;20006;-82
2023/04/19 11:48:37;;;;;;;4.90;3.35;;;;;;;17.38;40.64;100146.66;12206945;19;20019;-82
2023/04/19 11:52:48;;;;;;;6.18;3.20;;;;;;;17.57;40.22;100122.56;12215584;19;20041;-82
2023/04/19 11:57:06;;;;;;;5.35;3.20;;;;;;;17.51;39.41;100118.16;12194717;19;20026;-83
2023/04/19 12:01:19;;;;;;;4.55;2.90;;;;;;;17.77;39.95;100129.97;12213369;19;20111;-84
2023/04/19 12:05:23;;;;;;;5.05;2.72;;;;;;;18.37;39.69;100121.41;12220961;19;20017;-83
2023/04/19 12:09:35;;;;;;;6.35;3.03;;;;;;;18.84;36.64;100114.22;12191470;19;20011;-84
2023/04/19 12:13:39;;;;;;;7.95;2.90;;;;;;;19.31;35.34;100115.28;12214276;19;20007;-84
2023/04/19 12:18:01;;;;;;;5.25;2.78;;;;;;;20.02;34.63;100121.78;12194308;19;20069;-84
2023/04/19 12:22:19;;;;;;;9.65;3.05;;;;;;;20.39;32.16;100106.84;12205894;19;20093;-83
2023/04/19 12:26:20;;;;;;;6.38;2.60;;;;;;;20.65;32.05;100103.59;12217694;19;20066;-80
2023/04/19 12:30:24;;;;;;;8.23;2.75;;;;;;;21.13;32.18;100097.56;12197716;19;20007;-81
2023/04/19 12:34:33;;;;;;;4.18;2.28;;;;;;;21.41;30.16;100081.53;12223085;19;20013;-82
2023/04/19 12:38:36;;;;;;;8.57;2.43;;;;;;;21.78;28.92;100090.78;12229367;19;19995;-80
2023/04/19 12:42:39;;;;;;;6.25;2.70;;;;;;;22.51;28.41;100091.44;12259012;19;20259;-80
2023/04/19 12:46:46;;;;;;;4.93;2.20;;;;;;;21.74;28.36;100086.94;12220681;19;20028;-83
2023/04/19 12:50:48;;;;;;;3.85;2.00;;;;;;;22.08;28.46;100095.63;12190705;19;20022;-81
2023/04/19 12:54:50;;;;;;;4.65;1.65;;;;;;;22.86;25.99;100083.16;12210800;19;20015;-80
2023/04/19 12:58:56;;;;;;;6.70;1.70;;;;;;;23.53;25.08;100082.81;12220709;19;20002;-79
2023/04/19 13:02:57;;;;;;;11.75;2.53;;;;;;;23.45;24.61;100080.81;12191083;19;20075;-80
2023/04/19 13:07:03;;;;;;;3.47;1.63;;;;;;;23.02;24.22;100078.75;12217421;19;20014;-81
2023/04/19 13:11:05;;;;;;;2.53;1.40;;;;;;;23.09;24.56;100083.91;12218307;19;20006;-83
2023/04/19 13:15:07;;;;;;;;;;;;;;;23.75;24.05;100083.84;12195548;19;20007;-81
2023/04/19 13:19:12;;;;;;;3.10;1.60;;;;;;;24.16;23.73;100068.41;12249829;19;19917;-79
2023/04/19 13:23:14;;;;;;;3.28;1.48;;;;;;;24.87;22.86;100060.19;12233002;19;20024;-80
2023/04/19 13:27:16;;;;;;;;;;;;;;;24.54;21.04;100048.75;12204057;19;20070;-82
2023/04/19 13:31:19;;;;;;;4.82;1.52;;;;;;;24.64;21.32;100051.19;12222511;19;19928;-82
2023/04/19 13:35:21;;;;;;;4.32;1.75;;;;;;;24.05;21.13;100056.66;12220098;19;20011;-84
2023/04/19 13:39:23;;;;;;;2.78;1.50;;;;;;;24.00;21.37;100057.63;12193963;19;20781;-83
2023/04/19 13:43:26;;;;;;;4.10;1.50;;;;;;;24.15;21.10;100042.22;12211554;19;20006;-82
2023/04/19 13:47:28;;;;;;;;;;;;;;;24.65;20.10;100032.28;12195913;19;20496;-82
2023/04/19 13:51:30;;;;;;;8.02;1.60;;;;;;;25.12;20.29;100047.09;12211589;19;19911;-84
2023/04/19 13:55:51;;;;;;;4.65;1.50;;;;;;;24.59;20.51;100028.00;12215395;19;20460;-84
2023/04/19 13:59:53;;;;;;;;;;;;;;;23.13;21.27;100035.13;12197775;19;20046;-82
2023/04/19 14:03:57;;;;;;;4.53;1.48;;;;;;;22.35;21.73;100025.63;12219901;19;19922;-80
2023/04/19 14:08:01;;;;;;;2.75;1.30;;;;;;;21.31;23.41;100014.50;12210612;19;20002;-81
2023/04/19 14:12:08;;;;;;;4.72;1.60;;;;;;;20.90;23.95;100019.03;12189556;19;20018;-82
2023/04/19 14:16:10;;;;;;;6.15;1.60;;;;;;;20.95;24.05;100009.72;12211873;19;20106;-81
2023/04/19 14:20:12;;;;;;;4.03;1.17;;;;;;;20.62;23.26;100001.47;12214613;19;20014;-81
2023/04/19 14:24:15;;;;;;;4.93;1.25;;;;;;;20.25;23.54;99994.88;12187108;19;20023;-80
2023/04/19 14:28:19;;;;;;;3.10;1.20;;;;;;;19.88;23.79;99995.88;12218819;19;20287;-81
2023/04/19 14:32:23;;;;;;;2.97;1.55;;;;;;;19.41;24.13;100014.53;12218780;19;20025;-80
2023/04/19 14:36:27;;;;;;;2.08;1.33;;;;;;;19.04;24.08;99996.66;12209615;19;20057;-79
2023/04/19 14:40:29;;;;;;;4.70;1.23;;;;;;;18.47;23.73;99992.94;12216318;19;20709;-79
2023/04/19 14:44:31;;;;;;;7.63;1.50;;;;;;;18.21;24.52;99996.03;12185616;19;20010;-81
2023/04/19 14:48:33;;;;;;;12.15;2.70;;;;;;;18.47;25.03;100001.28;12206895;19;20011;-80
2023/04/19 14:52:35;;;;;;;5.27;1.60;;;;;;;18.45;24.48;99996.03;12213030;19;20021;-83
2023/04/19 14:56:37;;;;;;;2.00;1.30;;;;;;;18.95;25.30;99994.84;12186548;19;20006;-81
2023/04/19 15:00:39;;;;;;;3.42;1.58;;;;;;;19.27;24.74;99991.28;12211648;19;20487;-80
2023/04/19 15:04:42;;;;;;;3.95;1.15;;;;;;;18.54;25.24;100001.78;12203094;19;20011;-80
2023/04/19 15:08:45;;;;;;;6.65;1.70;;;;;;;17.95;25.83;99994.63;12187976;19;20722;-81
2023/04/19 15:12:49;;;;;;;3.45;1.77;;;;;;;17.66;26.66;99998.22;12200206;19;20002;-81
2023/04/19 15:16:51;;;;;;;1.85;1.15;;;;;;;17.56;26.70;99987.19;12200030;19;19999;-80
2023/04/19 15:20:53;;;;;;;3.47;1.40;;;;;;;17.24;25.46;99990.50;12192403;19;20393;-81
2023/04/19 15:24:55;;;;;;;2.35;1.40;;;;;;;17.02;26.07;99994.53;12222458;19;20065;-80
2023/04/19 15:28:57;;;;;;;3.03;1.27;;;;;;;16.70;26.58;99986.63;12260911;19;20010;-81
2023/04/19 15:32:58;;;;;;;2.38;1.33;;;;;;;16.36;27.06;99983.72;12237329;19;20259;-82
2023/04/19 15:37:01;;;;;;;4.03;1.57;;;;;;;16.07;27.50;99987.16;12254107;19;20003;-81
2023/04/19 15:41:03;;;;;;;1.63;1.30;;;;;;;15.79;27.32;99999.69;12242407;19;20018;-82
2023/04/19 15:45:05;;;;;;;5.43;1.70;;;;;;;15.65;27.37;99993.88;12196572;19;20017;-80
2023/04/19 15:49:08;;;;;;;2.80;1.35;;;;;;;15.75;27.93;99993.03;12210000;19;20035;-80
2023/04/19 15:53:10;;;;;;;5.55;1.38;;;;;;;16.21;27.27;99998.53;12216525;19;20023;-81
2023/04/19 15:57:21;;;;;;;3.53;1.30;;;;;;;16.71;26.44;99993.84;12244178;19;20003;-79
2023/04/19 16:01:23;;;;;;;3.40;1.40;;;;;;;17.79;27.17;99990.31;12263214;19;20028;-78
2023/04/19 16:05:30;;;;;;;3.72;1.40;;;;;;;18.75;25.72;100002.38;12199150;19;20109;-82
2023/04/19 16:09:31;;;;;;;3.25;1.50;;;;;;;18.53;25.64;100008.50;12215464;19;20475;-81
2023/04/19 16:13:34;;;;;;;5.60;1.58;;;;;;;18.61;25.28;99999.44;12201786;19;20385;-82
2023/04/19 16:17:36;;;;;;;;;;;;;;;18.93;25.69;100003.53;12186955;19;20034;-80
2023/04/19 16:21:38;;;;;;;4.13;1.40;;;;;;;18.54;24.48;100004.56;12215096;19;19903;-82
2023/04/19 16:25:40;;;;;;;2.42;1.30;;;;;;;18.83;24.35;100004.50;12209400;19;20006;-80
2023/04/19 16:29:42;;;;;;;2.85;1.60;;;;;;;19.76;24.13;100006.72;12195184;19;20766;-80
2023/04/19 16:33:44;;;;;;;2.93;1.43;;;;;;;19.53;24.46;100011.28;12210648;19;20002;-81
2023/04/19 16:37:46;;;;;;;2.88;1.20;;;;;;;18.75;25.02;100007.13;12207016;19;20007;-82
2023/04/19 16:41:48;;;;;;;3.22;1.58;;;;;;;18.52;25.57;100009.59;12191023;19;20018;-81
2023/04/19 16:45:50;;;;;;;3.55;1.50;;;;;;;19.01;25.87;100005.66;12207546;19;21042;-81
2023/04/19 16:49:52;;;;;;;3.37;1.53;;;;;;;18.40;25.49;100009.19;12215973;19;20028;-82
2023/04/19 16:53:56;;;;;;;3.15;1.63;;;;;;;17.98;25.62;100006.03;12198713;19;20365;-80
2023/04/19 16:57:58;;;;;;;5.50;1.43;;;;;;;17.51;26.65;100001.97;12258451;19;20007;-82
2023/04/19 17:02:00;;;;;;;2.40;1.70;;;;;;;17.10;27.13;100001.44;12212990;19;22310;-80
2023/04/19 17:06:03;;;;;;;2.80;1.52;;;;;;;17.41;27.22;99999.28;12177456;19;20650;-83
2023/04/19 17:10:07;;;;;;;3.45;1.40;;;;;;;17.71;26.51;99997.34;12196638;19;20010;-80
2023/04/19 17:14:08;;;;;;;3.25;1.40;;;;;;;17.09;26.48;99992.25;12207715;19;20035;-82
2023/04/19 17:18:10;;;;;;;3.27;1.40;;;;;;;16.63;27.75;99992.50;12198793;19;20031;-80
2023/04/19 17:22:13;;;;;;;5.18;1.92;;;;;;;16.64;28.42;99999.72;12238545;19;19995;-82
2023/04/19 17:26:15;;;;;;;2.78;1.52;;;;;;;16.13;28.33;99988.81;12260055;19;20007;-79
2023/04/19 17:30:17;;;;;;;3.88;1.90;;;;;;;15.49;29.64;100001.34;12197979;19;20082;-82
2023/04/19 17:34:20;;;;;;;6.18;1.83;;;;;;;14.98;29.79;99997.69;12211801;19;20010;-82
2023/04/19 17:38:21;;;;;;;2.13;1.42;;;;;;;14.67;30.71;99999.56;12212173;19;20050;-81
2023/04/19 17:42:23;;;;;;;3.10;1.73;;;;;;;15.06;29.86;100007.44;12185686;19;20034;-82
2023/04/19 17:46:25;;;;;;;2.45;1.70;;;;;;;15.07;29.96;100004.38;12201395;19;20081;-81
2023/04/19 17:50:28;;;;;;;2.67;1.65;;;;;;;14.95;30.90;100007.41;12190516;19;20134;-82
2023/04/19 17:54:30;;;;;;;4.25;1.73;;;;;;;14.90;30.67;100012.09;12204124;19;20010;-82
2023/04/19 17:58:34;;;;;;;4.32;1.90;;;;;;;14.79;31.38;100016.81;12200809;19;20006;-82
2023/04/19 18:02:39;;;;;;;2.70;1.50;;;;;;;14.30;32.18;100020.72;12182140;19;20373;-81
2023/04/19 18:06:41;;;;;;;3.33;1.98;;;;;;;13.61;33.93;100013.34;12206353;19;20006;-82
2023/04/19 18:10:45;;;;;;;2.47;1.50;;;;;;;12.98;34.11;100017.75;12199414;19;20015;-82
2023/04/19 18:14:48;;;;;;;3.78;2.05;;;;;;;12.45;34.08;100019.34;12174652;19;20095;-82
2023/04/19 18:18:50;;;;;;;3.13;1.88;;;;;;;12.06;35.17;100025.72;12203941;19;20007;-82
2023/04/19 18:22:52;;;;;;;3.05;1.50;;;;;;;11.71;36.82;100027.94;12199530;19;20002;-82
2023/04/19 18:26:57;;;;;;;4.65;1.80;;;;;;;11.34;38.19;100034.78;12177622;19;20384;-82
2023/04/19 18:30:59;;;;;;;4.15;1.77;;;;;;;11.05;39.00;100033.16;12199105;19;20006;-80
2023/04/19 18:35:07;;;;;;;4.00;1.70;;;;;;;10.72;39.98;100040.25;12200449;19;20029;-82
2023/04/19 18:39:12;;;;;;;3.65;1.70;;;;;;;10.38;40.03;100039.25;12180300;19;20014;-81
2023/04/19 18:43:14;;;;;;;3.05;1.15;;;;;;;10.16;40.85;100036.28;12192945;19;20498;-82